createdAt,value
2023-02-19T00:01:46.110Z,9.80
2023-02-19T00:04:16.645Z,9.80
2023-02-19T00:06:45.805Z,9.80
2023-02-19T00:09:15.446Z,9.80
2023-02-19T00:11:46.297Z,9.80
2023-02-19T00:14:17.755Z,9.80
2023-02-19T00:16:45.552Z,9.80
2023-02-19T00:19:16.024Z,9.80
2023-02-19T00:21:43.847Z,9.80
2023-02-19T00:24:13.016Z,9.70
2023-02-19T00:26:41.698Z,9.70
2023-02-19T00:29:13.189Z,9.70
2023-02-19T00:31:41.183Z,9.70
2023-02-19T00:34:09.926Z,9.70
2023-02-19T00:36:39.829Z,9.70
2023-02-19T00:39:08.997Z,9.70
2023-02-19T00:41:36.829Z,9.70
2023-02-19T00:44:07.197Z,9.70
2023-02-19T00:46:38.965Z,9.70
2023-02-19T00:49:08.347Z,9.70
2023-02-19T00:51:38.563Z,9.70
2023-02-19T00:54:06.882Z,9.70
2023-02-19T00:56:34.982Z,9.70
2023-02-19T00:59:04.087Z,9.70
2023-02-19T01:01:32.045Z,9.70
2023-02-19T01:04:01.267Z,9.60
2023-02-19T01:06:29.944Z,9.70
2023-02-19T01:08:57.767Z,9.70
2023-02-19T01:11:25.630Z,9.70
2023-02-19T01:13:53.468Z,9.70
2023-02-19T01:16:23.838Z,9.60
2023-02-19T01:18:52.838Z,9.60
2023-02-19T01:21:25.072Z,9.60
2023-02-19T01:23:53.594Z,9.60
2023-02-19T01:26:23.429Z,9.60
2023-02-19T01:28:51.789Z,9.60
2023-02-19T01:31:21.638Z,9.60
2023-02-19T01:33:52.251Z,9.60
2023-02-19T01:36:22.122Z,9.60
2023-02-19T01:38:50.508Z,9.60
2023-02-19T01:41:21.078Z,9.60
2023-02-19T01:44:01.540Z,9.60
2023-02-19T01:46:30.816Z,9.60
2023-02-19T01:49:01.523Z,9.60
2023-02-19T01:51:33.764Z,9.70
2023-02-19T01:54:05.849Z,9.60
2023-02-19T01:56:36.740Z,9.60
2023-02-19T01:59:05.025Z,9.70
2023-02-19T02:01:33.233Z,9.70
2023-02-19T02:04:01.625Z,9.70
2023-02-19T02:06:35.081Z,9.70
2023-02-19T02:09:20.748Z,9.70
2023-02-19T02:11:49.369Z,9.70
2023-02-19T02:14:18.614Z,9.70
2023-02-19T02:16:55.567Z,9.70
2023-02-19T02:19:33.064Z,9.70
2023-02-19T02:22:08.653Z,9.60
2023-02-19T02:25:11.824Z,9.70
2023-02-19T02:27:52.373Z,9.70
2023-02-19T02:30:32.344Z,9.70
2023-02-19T02:37:14.130Z,9.70
2023-02-19T02:39:43.115Z,9.70
2023-02-19T02:42:29.032Z,9.70
2023-02-19T02:45:37.228Z,9.80
2023-02-19T02:48:27.479Z,9.80
2023-02-19T02:50:59.648Z,9.80
2023-02-19T02:53:51.588Z,9.80
2023-02-19T02:56:20.533Z,9.80
2023-02-19T02:58:50.818Z,9.70
2023-02-19T03:01:42.486Z,9.70
2023-02-19T03:04:13.418Z,9.70
2023-02-19T03:06:43.099Z,9.70
2023-02-19T03:09:15.275Z,9.70
2023-02-19T03:12:06.145Z,9.70
2023-02-19T03:14:57.317Z,9.70
2023-02-19T03:17:50.575Z,9.70
2023-02-19T03:20:21.349Z,9.80
2023-02-19T03:22:51.288Z,9.80
2023-02-19T03:25:40.249Z,9.80
2023-02-19T03:28:11.623Z,9.90
2023-02-19T03:30:45.555Z,10.00
2023-02-19T03:33:16.490Z,10.00
2023-02-19T03:35:48.190Z,10.00
2023-02-19T03:38:20.641Z,10.10
2023-02-19T03:40:57.224Z,10.00
2023-02-19T03:43:34.750Z,10.10
2023-02-19T03:46:10.595Z,10.10
2023-02-19T03:48:46.674Z,10.10
2023-02-19T03:51:34.333Z,10.10
2023-02-19T03:54:13.544Z,10.20
2023-02-19T03:56:47.880Z,10.20
2023-02-19T03:59:20.327Z,10.20
2023-02-19T04:01:53.276Z,10.10
2023-02-19T04:04:28.430Z,10.10
2023-02-19T04:06:59.027Z,10.00
2023-02-19T04:09:35.721Z,10.00
2023-02-19T04:12:09.162Z,10.00
2023-02-19T04:14:41.731Z,10.10
2023-02-19T04:17:14.912Z,10.10
2023-02-19T04:19:44.440Z,10.10
2023-02-19T04:22:14.017Z,10.10
2023-02-19T04:24:47.273Z,10.10
2023-02-19T04:27:15.736Z,10.10
2023-02-19T04:29:43.866Z,10.10
2023-02-19T04:32:12.858Z,10.20
2023-02-19T04:34:40.676Z,10.30
2023-02-19T04:37:09.931Z,10.30
2023-02-19T04:39:37.946Z,10.30
2023-02-19T04:42:06.017Z,10.30
2023-02-19T04:44:34.424Z,10.40
2023-02-19T04:47:02.522Z,10.50
2023-02-19T04:49:30.568Z,10.50
2023-02-19T04:51:58.389Z,10.50
2023-02-19T04:54:27.886Z,10.50
2023-02-19T04:56:56.077Z,10.50
2023-02-19T04:59:23.881Z,10.50
2023-02-19T05:01:51.750Z,10.50
2023-02-19T05:04:19.667Z,10.60
2023-02-19T05:06:47.671Z,10.60
2023-02-19T05:09:15.471Z,10.50
2023-02-19T05:11:44.663Z,10.40
2023-02-19T05:14:12.749Z,10.40
2023-02-19T05:16:40.668Z,10.30
2023-02-19T05:19:08.500Z,10.30
2023-02-19T05:21:36.293Z,10.20
2023-02-19T05:24:04.505Z,10.20
2023-02-19T05:26:32.289Z,10.10
2023-02-19T05:29:01.519Z,10.00
2023-02-19T05:31:29.473Z,9.90
2023-02-19T05:33:58.047Z,9.70
2023-02-19T05:36:26.037Z,9.60
2023-02-19T05:38:55.031Z,9.30
2023-02-19T05:41:24.404Z,9.20
2023-02-19T05:43:52.228Z,9.10
2023-02-19T05:46:23.745Z,9.00
2023-02-19T05:48:53.182Z,8.80
2023-02-19T05:51:22.637Z,8.70
2023-02-19T05:53:50.931Z,8.70
2023-02-19T05:56:35.722Z,8.60
2023-02-19T05:59:06.785Z,8.50
2023-02-19T06:01:36.609Z,8.30
2023-02-19T06:04:04.813Z,8.20
2023-02-19T06:06:32.961Z,8.10
2023-02-19T06:09:00.862Z,8.00
2023-02-19T06:11:30.864Z,7.90
2023-02-19T06:13:58.745Z,7.90
2023-02-19T06:16:26.634Z,7.90
2023-02-19T06:18:55.973Z,7.80
2023-02-19T06:21:23.842Z,7.80
2023-02-19T06:23:51.690Z,7.80
2023-02-19T06:26:21.548Z,7.80
2023-02-19T06:28:51.322Z,7.80
2023-02-19T06:31:20.546Z,7.80
2023-02-19T06:33:50.552Z,7.80
2023-02-19T06:36:21.247Z,7.80
2023-02-19T06:38:49.053Z,7.80
2023-02-19T06:41:17.450Z,7.80
2023-02-19T06:43:46.495Z,7.90
2023-02-19T06:46:14.566Z,7.80
2023-02-19T06:48:43.874Z,7.80
2023-02-19T06:51:13.899Z,7.90
2023-02-19T06:53:43.321Z,7.90
2023-02-19T06:56:24.629Z,7.90
2023-02-19T06:58:52.547Z,7.90
2023-02-19T07:01:20.554Z,7.90
2023-02-19T07:03:48.492Z,7.90
2023-02-19T07:06:16.732Z,7.90
2023-02-19T07:08:46.242Z,7.90
2023-02-19T07:11:14.253Z,7.90
2023-02-19T07:13:42.127Z,7.90
2023-02-19T07:16:11.470Z,7.90
2023-02-19T07:18:41.182Z,8.00
2023-02-19T07:21:11.498Z,8.00
2023-02-19T07:23:40.119Z,8.00
2023-02-19T07:26:12.165Z,8.10
2023-02-19T07:28:41.505Z,8.10
2023-02-19T07:31:09.858Z,8.10
2023-02-19T07:33:37.908Z,8.10
2023-02-19T07:36:08.393Z,8.10
2023-02-19T07:38:36.273Z,8.20
2023-02-19T07:41:06.066Z,8.20
2023-02-19T07:43:38.322Z,8.20
2023-02-19T07:46:07.210Z,8.10
2023-02-19T07:48:36.624Z,8.10
2023-02-19T07:51:06.432Z,8.10
2023-02-19T07:53:35.107Z,8.20
2023-02-19T07:56:04.750Z,8.20
2023-02-19T07:58:34.252Z,8.20
2023-02-19T08:01:10.834Z,8.20
2023-02-19T08:03:38.259Z,8.20
2023-02-19T08:06:07.162Z,8.30
2023-02-19T08:08:35.273Z,8.30
2023-02-19T08:11:22.539Z,8.40
2023-02-19T08:13:51.361Z,8.50
2023-02-19T08:16:36.767Z,8.60
2023-02-19T08:19:09.093Z,8.70
2023-02-19T08:21:37.064Z,8.80
2023-02-19T08:24:05.567Z,8.70
2023-02-19T08:26:34.495Z,8.70
2023-02-19T08:29:02.624Z,8.70
2023-02-19T08:31:32.245Z,8.80
2023-02-19T08:34:00.129Z,8.90
2023-02-19T08:36:28.019Z,9.00
2023-02-19T08:38:55.886Z,8.90
2023-02-19T08:41:23.718Z,9.00
2023-02-19T08:43:51.527Z,9.10
2023-02-19T08:46:19.490Z,9.10
2023-02-19T08:48:48.710Z,9.00
2023-02-19T08:51:16.648Z,9.10
2023-02-19T08:53:44.629Z,9.10
2023-02-19T08:56:15.004Z,9.20
2023-02-19T08:58:43.268Z,9.10
2023-02-19T09:01:12.610Z,9.20
2023-02-19T09:03:41.223Z,8.90
2023-02-19T09:06:15.592Z,8.70
2023-02-19T09:08:43.517Z,8.60
2023-02-19T09:11:11.595Z,8.40
2023-02-19T09:13:39.618Z,8.20
2023-02-19T09:16:07.575Z,7.90
2023-02-19T09:18:35.540Z,7.50
2023-02-19T09:21:04.579Z,7.40
2023-02-19T09:23:35.893Z,7.10
2023-02-19T09:26:08.608Z,6.90
2023-02-19T09:28:38.126Z,6.90
2023-02-19T09:31:07.104Z,6.80
2023-02-19T09:33:34.990Z,6.70
2023-02-19T09:36:03.417Z,6.70
2023-02-19T09:38:31.585Z,6.70
2023-02-19T09:41:07.637Z,6.70
2023-02-19T09:43:36.443Z,6.70
2023-02-19T09:46:13.941Z,6.70
2023-02-19T09:48:41.816Z,6.60
2023-02-19T09:51:11.705Z,6.50
2023-02-19T09:53:43.180Z,6.40
2023-02-19T09:56:12.398Z,6.50
2023-02-19T09:58:47.603Z,6.40
2023-02-19T10:01:16.291Z,6.50
2023-02-19T10:03:47.227Z,6.40
2023-02-19T10:06:20.464Z,6.40
2023-02-19T10:08:50.728Z,6.40
2023-02-19T10:11:20.725Z,6.40
2023-02-19T10:13:52.493Z,6.30
2023-02-19T10:16:25.103Z,6.40
2023-02-19T10:18:53.620Z,6.40
2023-02-19T10:21:24.934Z,6.30
2023-02-19T10:23:55.580Z,6.30
2023-02-19T10:26:25.269Z,6.30
2023-02-19T10:28:54.144Z,6.30
2023-02-19T10:31:24.543Z,6.30
2023-02-19T10:33:54.183Z,6.30
2023-02-19T10:36:30.550Z,6.20
2023-02-19T10:39:01.445Z,6.10
2023-02-19T10:41:31.716Z,6.10
2023-02-19T10:44:06.626Z,6.10
2023-02-19T10:46:36.930Z,6.00
2023-02-19T10:49:07.414Z,6.00
2023-02-19T10:51:37.218Z,6.00
2023-02-19T10:54:07.605Z,5.90
2023-02-19T10:56:38.618Z,5.90
2023-02-19T10:59:26.560Z,5.90
2023-02-19T11:01:56.301Z,6.00
2023-02-19T11:04:25.949Z,6.00
2023-02-19T11:06:54.308Z,6.00
2023-02-19T11:09:29.061Z,6.00
2023-02-19T11:11:59.530Z,6.10
2023-02-19T11:14:31.213Z,6.30
2023-02-19T11:17:00.742Z,6.30
2023-02-19T11:19:32.793Z,6.40
2023-02-19T11:22:01.752Z,6.40
2023-02-19T11:24:35.113Z,6.50
2023-02-19T11:27:06.210Z,6.60
2023-02-19T11:29:35.627Z,6.60
2023-02-19T11:32:27.220Z,6.60
2023-02-19T11:35:17.631Z,6.70
2023-02-19T11:37:57.969Z,6.70
2023-02-19T11:40:36.510Z,6.80
2023-02-19T11:43:13.861Z,6.90
2023-02-19T11:45:47.809Z,6.90
2023-02-19T11:48:30.388Z,6.90
2023-02-19T11:51:20.072Z,6.90
2023-02-19T11:53:52.724Z,6.90
2023-02-19T11:56:24.573Z,7.10
2023-02-19T11:59:02.460Z,7.20
2023-02-19T12:01:56.370Z,7.30
2023-02-19T12:05:01.907Z,7.40
2023-02-19T12:08:00.684Z,7.50
2023-02-19T12:10:36.584Z,7.60
2023-02-19T12:13:14.965Z,7.70
2023-02-19T12:18:56.391Z,7.80
2023-02-19T12:21:30.046Z,7.70
2023-02-19T12:24:22.737Z,7.60
2023-02-19T12:27:03.725Z,7.50
2023-02-19T12:29:49.728Z,7.50
2023-02-19T12:32:46.991Z,7.50
2023-02-19T12:35:41.193Z,7.40
2023-02-19T12:38:21.694Z,7.40
2023-02-19T12:41:04.981Z,7.40
2023-02-19T12:43:34.472Z,7.40
2023-02-19T12:46:07.942Z,7.50
2023-02-19T12:48:46.297Z,7.70
2023-02-19T12:51:20.857Z,7.80
2023-02-19T12:53:53.294Z,7.80
2023-02-19T12:56:25.933Z,7.80
2023-02-19T12:58:57.616Z,7.80
2023-02-19T13:01:29.227Z,7.80
2023-02-19T13:04:17.062Z,7.80
2023-02-19T13:06:51.336Z,7.70
2023-02-19T13:09:24.340Z,7.60
2023-02-19T13:11:59.717Z,7.70
2023-02-19T13:14:31.094Z,7.70
2023-02-19T13:17:02.353Z,7.70
2023-02-19T13:19:32.151Z,7.70
2023-02-19T13:22:32.125Z,7.60
2023-02-19T13:25:00.817Z,7.60
2023-02-19T13:30:33.591Z,7.40
2023-02-19T13:33:13.039Z,7.30
2023-02-19T13:36:06.105Z,7.20
2023-02-19T13:38:38.323Z,7.20
2023-02-19T13:41:06.378Z,7.20
2023-02-19T13:43:38.714Z,7.30
2023-02-19T13:46:08.941Z,7.30
2023-02-19T13:48:38.797Z,7.30
2023-02-19T13:51:51.366Z,7.40
2023-02-19T13:54:25.828Z,7.40
2023-02-19T13:57:25.797Z,7.30
2023-02-19T13:59:54.755Z,7.30
2023-02-19T14:02:31.078Z,7.20
2023-02-19T14:05:01.518Z,7.20
2023-02-19T14:08:02.193Z,7.20
2023-02-19T14:11:02.093Z,7.20
2023-02-19T14:13:58.093Z,7.10
2023-02-19T14:16:53.210Z,7.10
2023-02-19T14:19:55.228Z,7.10
2023-02-19T14:22:47.813Z,7.00
2023-02-19T14:25:38.220Z,7.00
2023-02-19T14:28:22.586Z,7.10
2023-02-19T14:30:53.707Z,7.00
2023-02-19T14:33:24.754Z,6.90
2023-02-19T14:35:57.540Z,6.80
2023-02-19T14:38:29.294Z,6.90
2023-02-19T14:40:57.440Z,6.90
2023-02-19T14:43:28.800Z,6.90
2023-02-19T14:45:59.898Z,6.90
2023-02-19T14:48:31.413Z,6.90
2023-02-19T14:51:03.768Z,7.00
2023-02-19T14:53:38.280Z,6.90
2023-02-19T14:56:08.101Z,7.00
2023-02-19T14:58:40.623Z,6.90
2023-02-19T15:01:25.912Z,6.90
2023-02-19T15:03:56.487Z,6.90
2023-02-19T15:06:24.878Z,6.80
2023-02-19T15:08:56.795Z,6.80
2023-02-19T15:11:27.378Z,6.80
2023-02-19T15:13:58.856Z,6.90
2023-02-19T15:16:29.500Z,6.80
2023-02-19T15:18:59.640Z,6.70
2023-02-19T15:21:33.018Z,6.70
2023-02-19T15:24:03.238Z,6.70
2023-02-19T15:26:36.642Z,6.70
2023-02-19T15:29:14.319Z,6.80
2023-02-19T15:31:48.692Z,6.80
2023-02-19T15:34:22.316Z,6.90
2023-02-19T15:36:56.526Z,6.90
2023-02-19T15:39:26.785Z,6.90
2023-02-19T15:42:00.069Z,6.90
2023-02-19T15:44:48.795Z,6.90
2023-02-19T15:47:25.287Z,6.90
2023-02-19T15:49:58.341Z,6.90
2023-02-19T15:52:34.036Z,6.90
2023-02-19T15:55:08.206Z,6.90
2023-02-19T15:57:42.277Z,6.90
2023-02-19T16:00:18.592Z,6.80
2023-02-19T16:02:49.566Z,6.80
2023-02-19T16:05:25.599Z,6.80
2023-02-19T16:08:07.871Z,6.80
2023-02-19T16:10:35.797Z,6.90
2023-02-19T16:13:07.100Z,6.80
2023-02-19T16:15:36.857Z,6.90
2023-02-19T16:18:05.733Z,6.90
2023-02-19T16:20:36.919Z,6.80
2023-02-19T16:23:10.446Z,6.80
2023-02-19T16:25:42.729Z,6.80
2023-02-19T16:28:17.953Z,6.80
2023-02-19T16:30:47.367Z,6.80
2023-02-19T16:33:37.752Z,6.80
2023-02-19T16:36:35.628Z,6.90
2023-02-19T16:39:25.064Z,6.90
2023-02-19T16:42:16.983Z,6.80
2023-02-19T16:44:45.651Z,6.80
2023-02-19T16:47:48.135Z,6.80
2023-02-19T16:50:17.623Z,6.80
2023-02-19T16:52:52.282Z,6.70
2023-02-19T16:55:20.198Z,6.70
2023-02-19T16:57:48.468Z,6.70
2023-02-19T17:00:19.030Z,6.70
2023-02-19T17:02:49.236Z,6.70
2023-02-19T17:05:18.112Z,6.70
2023-02-19T17:07:45.979Z,6.70
2023-02-19T17:10:16.983Z,6.70
2023-02-19T17:12:44.806Z,6.60
2023-02-19T17:15:13.364Z,6.60
2023-02-19T17:17:41.941Z,6.50
2023-02-19T17:20:22.174Z,6.50
2023-02-19T17:22:50.059Z,6.40
2023-02-19T17:25:17.893Z,6.30
2023-02-19T17:27:45.739Z,6.30
2023-02-19T17:30:16.533Z,6.20
2023-02-19T17:32:45.355Z,6.10
2023-02-19T17:35:15.787Z,6.10
2023-02-19T17:37:43.603Z,6.00
2023-02-19T17:40:32.361Z,5.90
2023-02-19T17:43:03.935Z,5.90
2023-02-19T17:45:32.023Z,5.80
2023-02-19T17:48:00.744Z,5.80
2023-02-19T17:50:33.707Z,5.80
2023-02-19T17:53:01.843Z,5.90
2023-02-19T17:55:29.803Z,5.90
2023-02-19T17:57:59.185Z,5.90
2023-02-19T18:00:29.835Z,6.00
2023-02-19T18:02:57.939Z,6.00
2023-02-19T18:05:25.813Z,6.00
2023-02-19T18:07:55.391Z,6.00
2023-02-19T18:10:24.729Z,6.00
2023-02-19T18:12:52.600Z,6.00
2023-02-19T18:15:23.408Z,6.00
2023-02-19T18:17:52.598Z,6.00
2023-02-19T18:20:25.798Z,6.10
2023-02-19T18:22:57.774Z,6.00
2023-02-19T18:25:25.732Z,6.00
2023-02-19T18:27:53.888Z,6.00
2023-02-19T18:30:23.893Z,6.00
2023-02-19T18:33:00.973Z,6.00
2023-02-19T18:35:28.932Z,6.00
2023-02-19T18:37:58.416Z,6.00
2023-02-19T18:40:32.619Z,6.00
2023-02-19T18:43:00.474Z,6.00
2023-02-19T18:45:37.124Z,6.00
2023-02-19T18:48:05.586Z,6.00
2023-02-19T18:50:35.031Z,6.10
2023-02-19T18:53:04.319Z,6.10
2023-02-19T18:55:32.300Z,6.10
2023-02-19T18:58:03.467Z,6.10
2023-02-19T19:00:31.984Z,6.10
2023-02-19T19:03:01.537Z,6.10
2023-02-19T19:05:29.799Z,6.00
2023-02-19T19:07:59.365Z,6.10
2023-02-19T19:10:29.838Z,6.10
2023-02-19T19:12:58.535Z,6.10
2023-02-19T19:15:27.113Z,6.00
2023-02-19T19:17:55.357Z,6.00
2023-02-19T19:20:24.202Z,5.90
2023-02-19T19:22:52.861Z,5.90
2023-02-19T19:25:23.955Z,6.00
2023-02-19T19:27:56.720Z,6.00
2023-02-19T19:30:26.429Z,6.00
2023-02-19T19:32:54.402Z,6.00
2023-02-19T19:35:23.276Z,6.00
2023-02-19T19:37:51.383Z,6.10
2023-02-19T19:40:20.739Z,6.10
2023-02-19T19:42:51.245Z,6.10
2023-02-19T19:45:21.069Z,6.20
2023-02-19T19:47:49.734Z,6.20
2023-02-19T19:50:18.638Z,6.20
2023-02-19T19:52:46.494Z,6.30
2023-02-19T19:55:14.272Z,6.20
2023-02-19T19:57:42.132Z,6.30
2023-02-19T20:00:12.930Z,6.20
2023-02-19T20:02:42.178Z,6.20
2023-02-19T20:05:10.301Z,6.20
2023-02-19T20:07:38.195Z,6.10
2023-02-19T20:10:07.145Z,6.20
2023-02-19T20:12:35.077Z,6.20
2023-02-19T20:15:02.998Z,6.20
2023-02-19T20:17:30.761Z,6.20
2023-02-19T20:19:59.846Z,6.20
2023-02-19T20:22:27.664Z,6.20
2023-02-19T20:24:56.076Z,6.20
2023-02-19T20:27:24.189Z,6.20
2023-02-19T20:29:52.039Z,6.30
2023-02-19T20:32:19.958Z,6.30
2023-02-19T20:34:48.169Z,6.30
2023-02-19T20:37:17.400Z,6.30
2023-02-19T20:39:45.158Z,6.30
2023-02-19T20:42:17.013Z,6.30
2023-02-19T20:44:45.071Z,6.30
2023-02-19T20:47:12.927Z,6.30
2023-02-19T20:49:47.204Z,6.30
2023-02-19T20:52:17.634Z,6.40
2023-02-19T20:54:45.535Z,6.30
2023-02-19T20:57:15.041Z,6.40
2023-02-19T20:59:44.149Z,6.40
2023-02-19T21:02:18.801Z,6.40
2023-02-19T21:04:47.957Z,6.40
2023-02-19T21:07:17.220Z,6.40
2023-02-19T21:09:45.126Z,6.40
2023-02-19T21:12:13.104Z,6.40
2023-02-19T21:14:41.112Z,6.40
2023-02-19T21:17:09.596Z,6.50
2023-02-19T21:19:37.427Z,6.40
2023-02-19T21:22:05.251Z,6.40
2023-02-19T21:24:34.336Z,6.40
2023-02-19T21:27:02.072Z,6.30
2023-02-19T21:29:29.826Z,6.30
2023-02-19T21:31:58.701Z,6.30
2023-02-19T21:34:28.367Z,6.30
2023-02-19T21:36:57.032Z,6.30
2023-02-19T21:39:27.322Z,6.40
2023-02-19T21:41:58.493Z,6.40
2023-02-19T21:44:26.291Z,6.40
2023-02-19T21:46:54.051Z,6.40
2023-02-19T21:49:21.915Z,6.40
2023-02-19T21:51:50.287Z,6.50
2023-02-19T21:54:21.006Z,6.50
2023-02-19T21:56:49.495Z,6.40
2023-02-19T21:59:18.640Z,6.40
2023-02-19T22:01:47.055Z,6.40
2023-02-19T22:04:18.004Z,6.40
2023-02-19T22:06:46.132Z,6.40
2023-02-19T22:09:15.109Z,6.50
2023-02-19T22:11:43.291Z,6.40
2023-02-19T22:14:11.086Z,6.40
2023-02-19T22:16:40.197Z,6.40
2023-02-19T22:19:08.052Z,6.30
2023-02-19T22:21:35.779Z,6.40
2023-02-19T22:24:04.290Z,6.40
2023-02-19T22:26:33.712Z,6.40
2023-02-19T22:29:05.810Z,6.50
2023-02-19T22:31:34.262Z,6.50
2023-02-19T22:34:03.804Z,6.50
2023-02-19T22:36:33.871Z,6.50
2023-02-19T22:39:02.198Z,6.50
2023-02-19T22:41:30.110Z,6.40
2023-02-19T22:43:58.936Z,6.40
2023-02-19T22:46:29.745Z,6.30
2023-02-19T22:48:58.732Z,6.30
2023-02-19T22:51:27.804Z,6.30
2023-02-19T22:53:57.496Z,6.40
2023-02-19T22:56:26.933Z,6.40
2023-02-19T22:58:55.849Z,6.40
2023-02-19T23:01:24.754Z,6.40
2023-02-19T23:03:54.754Z,6.40
2023-02-19T23:06:25.059Z,6.40
2023-02-19T23:08:55.709Z,6.40
2023-02-19T23:11:25.979Z,6.40
2023-02-19T23:13:54.091Z,6.40
2023-02-19T23:16:22.349Z,6.40
2023-02-19T23:18:50.414Z,6.50
2023-02-19T23:21:19.587Z,6.50
2023-02-19T23:23:47.937Z,6.50
2023-02-19T23:26:17.618Z,6.50
2023-02-19T23:28:45.896Z,6.60
2023-02-19T23:31:14.259Z,6.60
2023-02-19T23:33:42.407Z,6.60
2023-02-19T23:36:11.359Z,6.70
2023-02-19T23:38:39.275Z,6.70
2023-02-19T23:41:11.361Z,6.70
2023-02-19T23:43:40.665Z,6.70
2023-02-19T23:46:08.813Z,6.80
2023-02-19T23:48:36.736Z,6.80
2023-02-19T23:51:04.659Z,6.80
2023-02-19T23:53:32.405Z,6.80
2023-02-19T23:56:00.214Z,6.90
2023-02-19T23:58:28.036Z,6.90
